createdAt,value
2018-09-30T00:01:52.226Z,4.51
2018-09-30T00:04:20.418Z,4.44
2018-09-30T00:06:48.586Z,4.55
2018-09-30T00:09:16.750Z,4.46
2018-09-30T00:11:44.898Z,4.38
2018-09-30T00:14:13.065Z,4.39
2018-09-30T00:16:41.229Z,4.38
2018-09-30T00:19:09.385Z,4.32
2018-09-30T00:21:37.888Z,4.27
2018-09-30T00:24:11.437Z,4.24
2018-09-30T00:26:44.891Z,4.22
2018-09-30T00:29:13.032Z,4.20
2018-09-30T00:31:41.185Z,4.17
2018-09-30T00:34:14.589Z,4.16
2018-09-30T00:36:42.745Z,4.12
2018-09-30T00:39:10.908Z,4.07
2018-09-30T00:41:39.080Z,4.04
2018-09-30T00:44:07.262Z,4.02
2018-09-30T00:46:35.466Z,3.98
2018-09-30T00:49:03.814Z,3.95
2018-09-30T00:51:32.373Z,3.91
2018-09-30T00:54:00.594Z,3.90
2018-09-30T00:56:29.014Z,3.89
2018-09-30T00:58:57.512Z,3.84
2018-09-30T01:01:25.951Z,3.84
2018-09-30T01:03:54.118Z,3.82
2018-09-30T01:06:22.729Z,3.78
2018-09-30T01:08:50.881Z,3.71
2018-09-30T01:11:19.377Z,3.68
2018-09-30T01:13:47.605Z,3.66
2018-09-30T01:16:15.749Z,3.58
2018-09-30T01:18:43.910Z,3.56
2018-09-30T01:21:12.124Z,3.50
2018-09-30T01:23:40.268Z,3.47
2018-09-30T01:26:08.442Z,3.43
2018-09-30T01:28:36.589Z,3.39
2018-09-30T01:31:04.827Z,3.38
2018-09-30T01:33:32.988Z,3.39
2018-09-30T01:36:01.145Z,3.36
2018-09-30T01:38:29.301Z,3.32
2018-09-30T01:40:57.462Z,3.29
2018-09-30T01:43:25.618Z,3.24
2018-09-30T01:45:53.877Z,3.20
2018-09-30T01:48:22.930Z,3.18
2018-09-30T01:50:51.108Z,3.16
2018-09-30T01:53:19.292Z,3.10
2018-09-30T01:55:47.719Z,3.06
2018-09-30T01:58:15.868Z,3.06
2018-09-30T02:00:44.032Z,2.99
2018-09-30T02:03:12.234Z,2.98
2018-09-30T02:05:40.974Z,2.98
2018-09-30T02:08:09.124Z,2.95
2018-09-30T02:10:37.327Z,2.94
2018-09-30T02:13:05.514Z,3.06
2018-09-30T02:15:33.857Z,3.04
2018-09-30T02:18:02.102Z,2.94
2018-09-30T02:20:30.260Z,2.87
2018-09-30T02:22:58.407Z,2.78
2018-09-30T02:25:26.589Z,2.73
2018-09-30T02:27:54.745Z,2.65
2018-09-30T02:30:22.901Z,2.61
2018-09-30T02:32:51.133Z,2.62
2018-09-30T02:35:19.289Z,2.55
2018-09-30T02:37:47.529Z,2.53
2018-09-30T02:40:16.020Z,2.47
2018-09-30T02:42:44.164Z,2.42
2018-09-30T02:45:12.353Z,2.38
2018-09-30T02:47:40.825Z,2.34
2018-09-30T02:50:09.055Z,2.33
2018-09-30T02:52:37.386Z,2.38
2018-09-30T02:55:05.629Z,2.39
2018-09-30T02:57:33.889Z,2.30
2018-09-30T03:00:02.051Z,2.24
2018-09-30T03:02:30.240Z,2.15
2018-09-30T03:04:58.470Z,2.43
2018-09-30T03:07:31.906Z,2.34
2018-09-30T03:10:00.072Z,2.24
2018-09-30T03:12:28.286Z,2.17
2018-09-30T03:14:56.497Z,2.23
2018-09-30T03:17:24.774Z,2.11
2018-09-30T03:19:52.941Z,2.07
2018-09-30T03:22:21.300Z,2.05
2018-09-30T03:24:49.533Z,2.04
2018-09-30T03:27:17.677Z,1.95
2018-09-30T03:29:45.861Z,1.91
2018-09-30T03:32:14.234Z,1.87
2018-09-30T03:34:42.533Z,1.85
2018-09-30T03:37:10.678Z,1.85
2018-09-30T03:39:39.201Z,1.85
2018-09-30T03:42:07.529Z,1.86
2018-09-30T03:44:35.708Z,1.84
2018-09-30T03:47:03.875Z,1.78
2018-09-30T03:49:32.024Z,1.77
2018-09-30T03:52:00.388Z,1.75
2018-09-30T03:54:28.566Z,1.74
2018-09-30T03:56:56.816Z,1.74
2018-09-30T03:59:25.353Z,1.70
2018-09-30T04:01:53.573Z,1.70
2018-09-30T04:04:21.756Z,1.72
2018-09-30T04:06:50.072Z,1.67
2018-09-30T04:09:18.307Z,1.69
2018-09-30T04:11:46.584Z,1.68
2018-09-30T04:14:14.870Z,1.63
2018-09-30T04:16:43.061Z,1.67
2018-09-30T04:19:11.309Z,1.64
2018-09-30T04:21:39.485Z,1.56
2018-09-30T04:24:10.583Z,1.53
2018-09-30T04:26:40.059Z,1.47
2018-09-30T04:29:08.716Z,1.48
2018-09-30T04:31:36.892Z,1.47
2018-09-30T04:34:05.339Z,1.49
2018-09-30T04:36:34.521Z,1.49
2018-09-30T04:39:02.797Z,1.54
2018-09-30T04:41:31.292Z,1.50
2018-09-30T04:43:59.933Z,1.52
2018-09-30T04:46:28.442Z,1.49
2018-09-30T04:48:56.729Z,1.56
2018-09-30T04:51:24.956Z,1.50
2018-09-30T04:53:53.212Z,1.45
2018-09-30T04:56:21.744Z,1.48
2018-09-30T04:58:49.926Z,1.47
2018-09-30T05:01:18.149Z,1.49
2018-09-30T05:03:46.334Z,1.49
2018-09-30T05:06:14.484Z,1.51
2018-09-30T05:08:42.831Z,1.53
2018-09-30T05:11:11.306Z,1.52
2018-09-30T05:13:39.530Z,1.51
2018-09-30T05:16:07.859Z,1.60
2018-09-30T05:18:35.981Z,1.59
2018-09-30T05:21:04.158Z,1.64
2018-09-30T05:23:32.335Z,1.64
2018-09-30T05:26:00.521Z,1.67
2018-09-30T05:28:28.885Z,1.73
2018-09-30T05:30:57.059Z,1.83
2018-09-30T05:33:25.268Z,1.94
2018-09-30T05:35:53.509Z,2.01
2018-09-30T05:38:21.685Z,2.10
2018-09-30T05:40:50.528Z,2.23
2018-09-30T05:43:18.761Z,2.36
2018-09-30T05:45:46.924Z,2.60
2018-09-30T05:48:15.117Z,2.75
2018-09-30T05:50:43.405Z,2.92
2018-09-30T05:53:11.600Z,3.07
2018-09-30T05:55:39.837Z,3.21
2018-09-30T05:58:08.179Z,3.33
2018-09-30T06:00:36.472Z,3.49
2018-09-30T06:03:04.653Z,3.64
2018-09-30T06:05:32.850Z,3.81
2018-09-30T06:08:01.028Z,3.92
2018-09-30T06:10:29.246Z,4.02
2018-09-30T06:12:57.906Z,4.18
2018-09-30T06:15:26.294Z,4.31
2018-09-30T06:17:54.471Z,4.44
2018-09-30T06:20:22.690Z,4.59
2018-09-30T06:22:50.848Z,4.73
2018-09-30T06:25:19.282Z,4.90
2018-09-30T06:27:47.529Z,5.02
2018-09-30T06:30:15.686Z,5.16
2018-09-30T06:32:43.886Z,5.29
2018-09-30T06:35:12.057Z,5.48
2018-09-30T06:37:40.373Z,5.61
2018-09-30T06:40:08.557Z,5.81
2018-09-30T06:42:36.713Z,5.96
2018-09-30T06:45:04.936Z,6.13
2018-09-30T06:47:33.129Z,6.30
2018-09-30T06:50:01.284Z,6.51
2018-09-30T06:52:29.477Z,6.68
2018-09-30T06:54:57.654Z,6.84
2018-09-30T06:57:26.184Z,6.94
2018-09-30T06:59:54.344Z,7.15
2018-09-30T07:02:22.580Z,7.29
2018-09-30T07:04:50.810Z,7.40
2018-09-30T07:07:18.906Z,7.59
2018-09-30T07:09:47.236Z,7.82
2018-09-30T07:12:15.377Z,7.93
2018-09-30T07:14:43.556Z,8.23
2018-09-30T07:17:12.077Z,8.30
2018-09-30T07:19:40.234Z,8.36
2018-09-30T07:22:08.509Z,8.51
2018-09-30T07:24:36.653Z,8.65
2018-09-30T07:27:04.825Z,8.72
2018-09-30T07:29:32.994Z,9.00
2018-09-30T07:32:01.169Z,8.94
2018-09-30T07:34:29.349Z,9.00
2018-09-30T07:36:57.497Z,9.23
2018-09-30T07:39:25.707Z,9.33
2018-09-30T07:41:53.873Z,9.44
2018-09-30T07:44:22.037Z,9.51
2018-09-30T07:46:50.288Z,9.79
2018-09-30T07:49:18.555Z,9.84
2018-09-30T07:51:46.778Z,9.86
2018-09-30T07:54:14.945Z,9.98
2018-09-30T07:56:43.137Z,10.07
2018-09-30T07:59:11.457Z,10.18
2018-09-30T08:01:39.619Z,10.15
2018-09-30T08:04:07.854Z,10.34
2018-09-30T08:06:36.017Z,10.41
2018-09-30T08:09:05.940Z,10.60
2018-09-30T08:11:34.107Z,10.68
2018-09-30T08:14:02.276Z,10.59
2018-09-30T08:16:30.510Z,10.73
2018-09-30T08:18:58.728Z,10.89
2018-09-30T08:21:26.906Z,11.04
2018-09-30T08:23:55.140Z,11.12
2018-09-30T08:26:23.569Z,11.12
2018-09-30T08:28:51.720Z,11.19
2018-09-30T08:31:20.028Z,11.36
2018-09-30T08:33:48.286Z,11.48
2018-09-30T08:36:16.550Z,11.59
2018-09-30T08:38:44.751Z,11.74
2018-09-30T08:41:13.371Z,11.86
2018-09-30T08:43:42.826Z,11.79
2018-09-30T08:46:11.030Z,11.94
2018-09-30T08:48:42.148Z,11.98
2018-09-30T08:51:10.680Z,12.06
2018-09-30T08:53:38.911Z,12.15
2018-09-30T08:56:07.913Z,12.07
2018-09-30T08:58:36.090Z,12.19
2018-09-30T09:01:04.357Z,12.39
2018-09-30T09:03:32.522Z,12.14
2018-09-30T09:06:01.566Z,12.29
2018-09-30T09:08:29.961Z,12.37
2018-09-30T09:10:58.181Z,12.67
2018-09-30T09:13:26.405Z,12.81
2018-09-30T09:15:54.569Z,12.81
2018-09-30T09:18:22.805Z,12.94
2018-09-30T09:20:51.001Z,13.08
2018-09-30T09:23:19.247Z,13.17
2018-09-30T09:25:47.412Z,13.08
2018-09-30T09:28:15.609Z,13.06
2018-09-30T09:30:43.868Z,13.08
2018-09-30T09:33:12.168Z,13.03
2018-09-30T09:35:40.281Z,13.26
2018-09-30T09:38:08.447Z,13.44
2018-09-30T09:40:36.596Z,13.49
2018-09-30T09:43:05.083Z,13.41
2018-09-30T09:45:33.246Z,13.54
2018-09-30T09:48:01.533Z,13.65
2018-09-30T09:50:29.786Z,13.89
2018-09-30T09:52:58.032Z,14.08
2018-09-30T09:55:26.238Z,14.06
2018-09-30T09:57:54.462Z,14.29
2018-09-30T10:00:28.045Z,14.44
2018-09-30T10:02:56.221Z,14.49
2018-09-30T10:05:24.485Z,14.54
2018-09-30T10:07:52.645Z,14.67
2018-09-30T10:10:20.914Z,14.84
2018-09-30T10:12:49.225Z,15.18
2018-09-30T10:15:17.463Z,15.71
2018-09-30T10:17:45.631Z,16.15
2018-09-30T10:20:14.109Z,16.32
2018-09-30T10:22:42.334Z,16.87
2018-09-30T10:25:10.563Z,17.43
2018-09-30T10:27:38.781Z,18.18
2018-09-30T10:30:07.023Z,19.80
2018-09-30T10:32:35.545Z,21.63
2018-09-30T10:35:03.721Z,23.33
2018-09-30T10:37:31.994Z,25.55
2018-09-30T10:40:00.219Z,27.70
2018-09-30T10:42:28.395Z,28.71
2018-09-30T10:44:56.568Z,28.87
2018-09-30T10:47:25.052Z,27.63
2018-09-30T10:49:53.386Z,29.32
2018-09-30T10:52:28.370Z,31.15
2018-09-30T10:54:56.641Z,31.48
2018-09-30T10:57:24.837Z,31.77
2018-09-30T10:59:53.080Z,30.84
2018-09-30T11:02:21.277Z,29.03
2018-09-30T11:04:49.497Z,29.54
2018-09-30T11:07:17.723Z,32.52
2018-09-30T11:09:46.145Z,32.90
2018-09-30T11:12:14.193Z,33.25
2018-09-30T11:14:42.457Z,34.61
2018-09-30T11:17:10.630Z,34.67
2018-09-30T11:19:38.889Z,34.97
2018-09-30T11:22:07.209Z,35.11
2018-09-30T11:24:35.389Z,34.96
2018-09-30T11:27:03.642Z,35.18
2018-09-30T11:29:31.846Z,34.96
2018-09-30T11:32:00.131Z,36.39
2018-09-30T11:34:28.235Z,36.46
2018-09-30T11:36:56.546Z,36.66
2018-09-30T11:39:24.738Z,37.26
2018-09-30T11:41:52.925Z,39.06
2018-09-30T11:44:21.128Z,38.73
2018-09-30T11:46:49.328Z,37.06
2018-09-30T11:49:17.549Z,36.70
2018-09-30T11:51:45.756Z,38.22
2018-09-30T11:54:14.058Z,38.33
2018-09-30T11:56:42.242Z,38.19
2018-09-30T11:59:10.434Z,38.53
2018-09-30T12:01:38.692Z,39.32
2018-09-30T12:04:07.453Z,38.77
2018-09-30T12:06:35.646Z,39.61
2018-09-30T12:09:05.298Z,39.87
2018-09-30T12:11:33.501Z,39.62
2018-09-30T12:14:01.724Z,39.56
2018-09-30T12:16:29.905Z,40.17
2018-09-30T12:18:58.128Z,39.74
2018-09-30T12:21:26.352Z,37.17
2018-09-30T12:23:54.524Z,37.61
2018-09-30T12:26:22.778Z,38.43
2018-09-30T12:28:51.004Z,38.74
2018-09-30T12:31:19.194Z,39.87
2018-09-30T12:33:47.474Z,39.33
2018-09-30T12:36:15.658Z,39.33
2018-09-30T12:38:43.974Z,40.40
2018-09-30T12:41:12.216Z,41.68
2018-09-30T12:43:41.425Z,41.75
2018-09-30T12:46:10.674Z,40.86
2018-09-30T12:48:41.009Z,40.87
2018-09-30T12:51:09.209Z,41.71
2018-09-30T12:53:37.445Z,41.71
2018-09-30T12:56:05.748Z,40.76
2018-09-30T12:58:34.149Z,39.59
2018-09-30T13:01:02.481Z,40.53
2018-09-30T13:03:30.729Z,41.75
2018-09-30T13:05:58.913Z,40.91
2018-09-30T13:08:27.141Z,41.29
2018-09-30T13:10:55.335Z,41.14
2018-09-30T13:13:23.644Z,43.26
2018-09-30T13:15:51.891Z,41.03
2018-09-30T13:18:20.115Z,41.13
2018-09-30T13:20:48.328Z,41.79
2018-09-30T13:23:16.613Z,41.44
2018-09-30T13:25:44.834Z,43.56
2018-09-30T13:28:13.073Z,39.10
2018-09-30T13:30:41.328Z,40.81
2018-09-30T13:33:09.594Z,42.20
2018-09-30T13:35:37.806Z,42.43
2018-09-30T13:38:05.998Z,43.49
2018-09-30T13:40:34.309Z,42.56
2018-09-30T13:43:02.422Z,43.67
2018-09-30T13:45:30.622Z,42.13
2018-09-30T13:47:58.841Z,43.29
2018-09-30T13:50:27.038Z,41.52
2018-09-30T13:52:55.228Z,43.45
2018-09-30T13:55:23.506Z,43.88
2018-09-30T13:57:51.677Z,42.97
2018-09-30T14:00:19.934Z,43.77
2018-09-30T14:02:48.146Z,43.89
2018-09-30T14:05:16.317Z,43.76
2018-09-30T14:07:44.503Z,43.23
2018-09-30T14:10:12.734Z,43.91
2018-09-30T14:12:40.907Z,41.44
2018-09-30T14:15:09.097Z,39.00
2018-09-30T14:17:37.369Z,39.16
2018-09-30T14:20:05.593Z,38.87
2018-09-30T14:22:33.816Z,40.13
2018-09-30T14:25:02.033Z,38.51
2018-09-30T14:27:30.303Z,38.10
2018-09-30T14:29:58.386Z,40.87
2018-09-30T14:32:26.619Z,39.85
2018-09-30T14:34:54.819Z,39.46
2018-09-30T14:37:23.056Z,36.76
2018-09-30T14:39:51.271Z,34.46
2018-09-30T14:42:19.436Z,31.55
2018-09-30T14:44:47.682Z,29.08
2018-09-30T14:47:15.886Z,28.56
2018-09-30T14:49:44.136Z,27.50
2018-09-30T14:52:12.332Z,26.29
2018-09-30T14:54:40.590Z,25.63
2018-09-30T14:57:08.762Z,23.79
2018-09-30T14:59:37.142Z,22.58
2018-09-30T15:02:05.338Z,22.14
2018-09-30T15:04:33.842Z,22.06
2018-09-30T15:07:02.027Z,21.85
2018-09-30T15:09:30.264Z,21.98
2018-09-30T15:11:58.522Z,21.64
2018-09-30T15:14:26.732Z,21.51
2018-09-30T15:16:54.944Z,21.44
2018-09-30T15:19:23.155Z,20.98
2018-09-30T15:21:51.433Z,21.10
2018-09-30T15:24:19.802Z,20.88
2018-09-30T15:26:47.983Z,20.78
2018-09-30T15:29:16.244Z,20.62
2018-09-30T15:31:44.573Z,20.33
2018-09-30T15:34:12.789Z,20.18
2018-09-30T15:36:40.972Z,19.81
2018-09-30T15:39:10.844Z,19.51
2018-09-30T15:41:39.377Z,19.26
2018-09-30T15:44:07.639Z,19.03
2018-09-30T15:46:35.849Z,18.76
2018-09-30T15:49:04.070Z,18.67
2018-09-30T15:51:32.261Z,18.76
2018-09-30T15:54:00.457Z,19.18
2018-09-30T15:56:28.751Z,21.13
2018-09-30T15:58:57.044Z,21.84
2018-09-30T16:01:25.200Z,20.93
2018-09-30T16:03:53.512Z,20.10
2018-09-30T16:06:21.697Z,19.67
2018-09-30T16:08:49.858Z,19.44
2018-09-30T16:11:18.041Z,19.16
2018-09-30T16:13:46.238Z,18.74
2018-09-30T16:16:14.708Z,18.27
2018-09-30T16:18:42.885Z,18.13
2018-09-30T16:21:11.140Z,17.77
2018-09-30T16:23:39.290Z,17.37
2018-09-30T16:26:07.934Z,17.07
2018-09-30T16:28:36.106Z,16.79
2018-09-30T16:31:04.298Z,16.65
2018-09-30T16:33:32.550Z,16.39
2018-09-30T16:36:00.726Z,16.11
2018-09-30T16:38:28.926Z,15.87
2018-09-30T16:40:57.203Z,15.69
2018-09-30T16:43:25.477Z,15.59
2018-09-30T16:45:53.773Z,15.40
2018-09-30T16:48:23.471Z,15.24
2018-09-30T16:50:52.065Z,15.04
2018-09-30T16:53:20.259Z,14.85
2018-09-30T16:55:48.504Z,14.73
2018-09-30T16:58:16.668Z,14.59
2018-09-30T17:00:44.850Z,14.44
2018-09-30T17:03:13.005Z,14.35
2018-09-30T17:05:41.287Z,14.24
2018-09-30T17:08:09.480Z,14.17
2018-09-30T17:10:37.728Z,13.99
2018-09-30T17:13:06.115Z,13.90
2018-09-30T17:15:34.299Z,13.78
2018-09-30T17:18:02.558Z,13.68
2018-09-30T17:20:30.848Z,13.60
2018-09-30T17:22:59.132Z,13.50
2018-09-30T17:25:27.398Z,13.44
2018-09-30T17:27:55.687Z,13.33
2018-09-30T17:30:23.893Z,13.16
2018-09-30T17:32:52.181Z,13.04
2018-09-30T17:35:20.381Z,12.98
2018-09-30T17:37:48.596Z,12.96
2018-09-30T17:40:16.766Z,12.96
2018-09-30T17:42:44.977Z,12.91
2018-09-30T17:45:13.185Z,12.77
2018-09-30T17:47:41.359Z,12.65
2018-09-30T17:50:09.537Z,12.53
2018-09-30T17:52:37.717Z,12.49
2018-09-30T17:55:06.073Z,12.40
2018-09-30T17:57:34.253Z,12.33
2018-09-30T18:00:02.625Z,12.27
2018-09-30T18:02:30.815Z,12.19
2018-09-30T18:04:59.093Z,12.09
2018-09-30T18:07:27.396Z,12.02
2018-09-30T18:09:55.572Z,11.94
2018-09-30T18:12:24.282Z,11.86
2018-09-30T18:14:52.749Z,11.83
2018-09-30T18:17:20.989Z,11.74
2018-09-30T18:19:49.172Z,11.64
2018-09-30T18:22:17.433Z,11.50
2018-09-30T18:24:45.620Z,11.44
2018-09-30T18:27:14.036Z,11.39
2018-09-30T18:29:42.272Z,11.38
2018-09-30T18:32:10.674Z,11.41
2018-09-30T18:34:38.946Z,11.37
2018-09-30T18:37:07.142Z,11.25
2018-09-30T18:39:35.437Z,11.16
2018-09-30T18:42:03.603Z,10.99
2018-09-30T18:44:31.805Z,10.85
2018-09-30T18:47:00.004Z,10.77
2018-09-30T18:49:28.643Z,10.68
2018-09-30T18:51:56.829Z,10.61
2018-09-30T18:54:25.037Z,10.55
2018-09-30T18:56:53.236Z,10.43
2018-09-30T18:59:21.493Z,10.39
2018-09-30T19:01:49.753Z,10.37
2018-09-30T19:04:17.955Z,10.28
2018-09-30T19:06:46.137Z,10.23
2018-09-30T19:09:14.373Z,10.14
2018-09-30T19:11:42.793Z,10.08
2018-09-30T19:14:11.179Z,10.04
2018-09-30T19:16:39.424Z,9.99
2018-09-30T19:19:07.863Z,9.96
2018-09-30T19:21:36.270Z,9.93
2018-09-30T19:24:04.542Z,9.93
2018-09-30T19:26:32.741Z,9.94
2018-09-30T19:29:00.938Z,9.91
2018-09-30T19:31:29.160Z,9.85
2018-09-30T19:33:57.444Z,9.75
2018-09-30T19:36:25.867Z,9.68
2018-09-30T19:38:54.054Z,9.63
2018-09-30T19:41:22.384Z,9.59
2018-09-30T19:43:50.587Z,9.57
2018-09-30T19:46:18.824Z,9.54
2018-09-30T19:48:47.215Z,9.50
2018-09-30T19:51:15.394Z,9.44
2018-09-30T19:53:43.639Z,9.40
2018-09-30T19:56:11.841Z,9.35
2018-09-30T19:58:40.086Z,9.35
2018-09-30T20:01:08.324Z,9.28
2018-09-30T20:03:36.476Z,9.26
2018-09-30T20:06:04.665Z,9.29
2018-09-30T20:08:33.057Z,9.28
2018-09-30T20:11:01.274Z,9.23
2018-09-30T20:13:29.709Z,9.19
2018-09-30T20:15:57.921Z,9.14
2018-09-30T20:18:26.785Z,9.10
2018-09-30T20:20:55.040Z,9.07
2018-09-30T20:23:23.157Z,9.02
2018-09-30T20:25:51.333Z,8.98
2018-09-30T20:28:19.595Z,9.02
2018-09-30T20:30:47.869Z,9.00
2018-09-30T20:33:16.119Z,8.98
2018-09-30T20:35:44.873Z,8.96
2018-09-30T20:38:13.045Z,8.95
2018-09-30T20:40:42.066Z,8.99
2018-09-30T20:43:10.244Z,9.04
2018-09-30T20:45:38.930Z,9.00
2018-09-30T20:48:07.513Z,8.93
2018-09-30T20:50:35.802Z,8.86
2018-09-30T20:53:04.018Z,8.82
2018-09-30T20:55:32.909Z,8.77
2018-09-30T20:58:01.195Z,8.71
2018-09-30T21:00:29.405Z,8.64
2018-09-30T21:02:57.691Z,8.58
2018-09-30T21:06:40.365Z,8.55
2018-09-30T21:09:11.960Z,8.48
2018-09-30T21:11:40.243Z,8.44
2018-09-30T21:14:08.509Z,8.45
2018-09-30T21:16:36.888Z,8.41
2018-09-30T21:19:06.255Z,8.36
2018-09-30T21:21:35.298Z,8.31
2018-09-30T21:24:04.624Z,8.26
2018-09-30T21:26:34.327Z,8.25
2018-09-30T21:29:04.056Z,8.27
2018-09-30T21:31:33.301Z,8.29
2018-09-30T21:34:02.713Z,8.28
2018-09-30T21:36:33.134Z,8.27
2018-09-30T21:39:02.210Z,8.23
2018-09-30T21:41:31.144Z,8.21
2018-09-30T21:44:00.300Z,8.22
2018-09-30T21:46:29.456Z,8.21
2018-09-30T21:48:58.871Z,8.14
2018-09-30T21:51:28.058Z,8.14
2018-09-30T21:53:57.030Z,8.10
2018-09-30T21:56:26.641Z,8.10
2018-09-30T21:58:56.107Z,8.11
2018-09-30T22:01:25.092Z,8.13
2018-09-30T22:03:53.215Z,8.08
2018-09-30T22:06:21.453Z,8.05
2018-09-30T22:08:49.719Z,8.01
2018-09-30T22:11:17.907Z,8.00
2018-09-30T22:13:46.117Z,7.99
2018-09-30T22:16:14.309Z,7.97
2018-09-30T22:18:42.839Z,7.96
2018-09-30T22:21:11.057Z,7.96
2018-09-30T22:23:39.400Z,7.98
2018-09-30T22:26:07.572Z,7.98
2018-09-30T22:28:35.804Z,7.97
2018-09-30T22:31:03.997Z,7.97
2018-09-30T22:33:32.176Z,7.97
2018-09-30T22:36:00.358Z,7.96
2018-09-30T22:38:28.724Z,7.94
2018-09-30T22:40:56.916Z,7.95
2018-09-30T22:43:25.146Z,7.94
2018-09-30T22:45:53.333Z,7.91
2018-09-30T22:48:22.606Z,7.93
2018-09-30T22:50:50.798Z,7.94
2018-09-30T22:53:19.023Z,7.95
2018-09-30T22:55:47.139Z,7.94
2018-09-30T22:58:15.344Z,7.95
2018-09-30T23:00:43.550Z,7.96
2018-09-30T23:03:11.742Z,7.95
2018-09-30T23:05:39.941Z,7.96
2018-09-30T23:08:08.190Z,7.92
2018-09-30T23:10:36.375Z,7.88
2018-09-30T23:13:04.545Z,7.83
2018-09-30T23:15:32.770Z,7.77
2018-09-30T23:18:00.985Z,7.72
2018-09-30T23:20:29.159Z,7.70
2018-09-30T23:22:57.361Z,7.65
2018-09-30T23:25:25.612Z,7.68
2018-09-30T23:27:53.771Z,7.68
2018-09-30T23:30:21.936Z,7.64
2018-09-30T23:32:50.148Z,7.62
2018-09-30T23:35:18.300Z,7.57
2018-09-30T23:37:46.500Z,7.55
2018-09-30T23:40:14.678Z,7.52
2018-09-30T23:42:42.934Z,7.51
2018-09-30T23:45:11.366Z,7.52
2018-09-30T23:47:39.961Z,7.54
2018-09-30T23:50:08.378Z,7.59
2018-09-30T23:52:36.551Z,7.53
2018-09-30T23:55:04.738Z,7.49
2018-09-30T23:57:32.905Z,7.42
